createdAt,value
2018-05-14T00:01:29.620Z,4.20
2018-05-14T00:03:57.917Z,4.43
2018-05-14T00:06:26.201Z,4.50
2018-05-14T00:08:54.467Z,4.70
2018-05-14T00:11:22.735Z,5.47
2018-05-14T00:13:50.988Z,4.80
2018-05-14T00:16:19.273Z,4.60
2018-05-14T00:18:47.544Z,4.53
2018-05-14T00:21:15.830Z,4.07
2018-05-14T00:23:44.136Z,4.00
2018-05-14T00:26:12.410Z,4.67
2018-05-14T00:28:40.708Z,4.37
2018-05-14T00:31:08.976Z,4.87
2018-05-14T00:33:38.748Z,4.37
2018-05-14T00:36:07.027Z,4.90
2018-05-14T00:38:35.324Z,5.53
2018-05-14T00:41:03.632Z,4.70
2018-05-14T00:43:32.659Z,4.93
2018-05-14T00:46:00.936Z,4.40
2018-05-14T00:48:29.221Z,4.43
2018-05-14T00:50:57.485Z,4.80
2018-05-14T00:53:25.760Z,4.50
2018-05-14T00:55:54.038Z,4.90
2018-05-14T00:58:22.315Z,4.50
2018-05-14T01:00:50.600Z,4.83
2018-05-14T01:03:18.867Z,4.03
2018-05-14T01:05:47.147Z,4.40
2018-05-14T01:08:15.461Z,4.87
2018-05-14T01:10:43.724Z,4.63
2018-05-14T01:13:12.012Z,5.70
2018-05-14T01:15:40.287Z,5.27
2018-05-14T01:18:08.583Z,5.37
2018-05-14T01:20:37.622Z,5.13
2018-05-14T01:23:05.935Z,5.30
2018-05-14T01:25:34.198Z,4.70
2018-05-14T01:28:02.562Z,4.17
2018-05-14T01:30:30.759Z,4.07
2018-05-14T01:32:59.047Z,5.27
2018-05-14T01:35:27.308Z,4.67
2018-05-14T01:37:55.611Z,4.13
2018-05-14T01:40:24.660Z,5.00
2018-05-14T01:42:52.926Z,4.07
2018-05-14T01:45:21.216Z,5.50
2018-05-14T01:47:49.499Z,4.80
2018-05-14T01:50:17.813Z,5.70
2018-05-14T01:52:46.067Z,5.27
2018-05-14T01:55:14.439Z,4.97
2018-05-14T01:57:42.732Z,4.90
2018-05-14T02:00:11.024Z,4.90
2018-05-14T02:02:39.267Z,5.20
2018-05-14T02:05:07.551Z,5.87
2018-05-14T02:07:35.823Z,5.30
2018-05-14T02:10:04.079Z,5.37
2018-05-14T02:12:38.315Z,5.10
2018-05-14T02:15:06.579Z,4.60
2018-05-14T02:17:34.884Z,5.33
2018-05-14T02:20:03.149Z,5.87
2018-05-14T02:22:31.421Z,6.70
2018-05-14T02:24:59.708Z,5.00
2018-05-14T02:27:27.971Z,5.90
2018-05-14T02:29:56.269Z,5.03
2018-05-14T02:32:24.538Z,5.70
2018-05-14T02:34:52.839Z,5.93
2018-05-14T02:37:21.879Z,5.40
2018-05-14T02:39:50.171Z,6.07
2018-05-14T02:42:18.428Z,5.97
2018-05-14T02:44:46.697Z,6.20
2018-05-14T02:49:50.324Z,5.60
2018-05-14T02:52:18.604Z,6.30
2018-05-14T02:54:46.884Z,6.03
2018-05-14T02:57:15.154Z,5.90
2018-05-14T02:59:43.427Z,6.00
2018-05-14T03:02:11.699Z,4.97
2018-05-14T03:04:40.017Z,5.83
2018-05-14T03:07:08.287Z,6.00
2018-05-14T03:09:36.656Z,7.00
2018-05-14T03:12:04.949Z,6.30
2018-05-14T03:14:33.306Z,6.10
2018-05-14T03:17:01.597Z,5.73
2018-05-14T03:19:29.874Z,5.37
2018-05-14T03:21:58.150Z,6.10
2018-05-14T03:24:26.420Z,6.10
2018-05-14T03:26:54.709Z,6.37
2018-05-14T03:29:23.748Z,6.20
2018-05-14T03:31:52.039Z,6.10
2018-05-14T03:34:20.298Z,6.33
2018-05-14T03:36:48.576Z,6.67
2018-05-14T03:39:16.855Z,6.90
2018-05-14T03:41:45.116Z,5.23
2018-05-14T03:44:13.387Z,6.03
2018-05-14T03:46:42.416Z,6.60
2018-05-14T03:49:10.691Z,6.13
2018-05-14T03:51:38.971Z,6.30
2018-05-14T03:54:07.363Z,6.73
2018-05-14T03:56:35.623Z,6.50
2018-05-14T03:59:16.008Z,7.63
2018-05-14T04:04:58.225Z,6.70
2018-05-14T04:07:26.496Z,7.00
2018-05-14T04:09:54.772Z,6.60
2018-05-14T04:12:23.057Z,6.17
2018-05-14T04:14:51.352Z,6.27
2018-05-14T04:17:20.388Z,6.53
2018-05-14T04:19:48.683Z,6.47
2018-05-14T04:22:16.962Z,6.77
2018-05-14T04:24:45.267Z,6.10
2018-05-14T04:27:13.519Z,6.40
2018-05-14T04:29:41.816Z,6.30
2018-05-14T04:32:10.100Z,7.00
2018-05-14T04:34:38.372Z,5.87
2018-05-14T04:37:06.679Z,6.97
2018-05-14T04:39:35.031Z,6.90
2018-05-14T04:42:04.819Z,6.67
2018-05-14T04:44:33.084Z,7.30
2018-05-14T04:47:01.390Z,5.90
2018-05-14T04:49:29.667Z,7.03
2018-05-14T04:51:57.928Z,7.40
2018-05-14T04:54:26.236Z,7.33
2018-05-14T04:56:55.261Z,7.07
2018-05-14T04:59:23.580Z,7.40
2018-05-14T05:01:51.858Z,6.70
2018-05-14T05:04:20.154Z,8.20
2018-05-14T05:06:48.503Z,6.97
2018-05-14T05:09:16.803Z,7.87
2018-05-14T05:11:45.072Z,8.07
2018-05-14T05:14:13.436Z,7.10
2018-05-14T05:16:41.752Z,6.50
2018-05-14T05:19:10.787Z,7.20
2018-05-14T05:21:39.051Z,7.17
2018-05-14T05:24:07.332Z,7.00
2018-05-14T05:26:35.631Z,7.00
2018-05-14T05:29:03.908Z,7.27
2018-05-14T05:31:32.172Z,6.33
2018-05-14T05:34:00.451Z,7.53
2018-05-14T05:36:28.718Z,7.40
2018-05-14T05:38:57.019Z,6.50
2018-05-14T05:41:25.302Z,6.80
2018-05-14T05:43:53.588Z,7.40
2018-05-14T05:46:22.644Z,7.03
2018-05-14T05:48:50.935Z,7.70
2018-05-14T05:51:19.232Z,7.33
2018-05-14T05:53:47.483Z,6.60
2018-05-14T05:56:15.742Z,7.10
2018-05-14T05:58:44.072Z,7.17
2018-05-14T06:01:13.148Z,7.10
2018-05-14T06:03:41.372Z,7.93
2018-05-14T06:06:09.668Z,7.40
2018-05-14T06:08:38.091Z,7.17
2018-05-14T06:11:06.344Z,7.57
2018-05-14T06:13:34.620Z,8.20
2018-05-14T06:16:02.929Z,8.40
2018-05-14T06:18:31.977Z,7.40
2018-05-14T06:21:00.259Z,7.40
2018-05-14T06:23:28.528Z,7.57
2018-05-14T06:25:56.803Z,6.90
2018-05-14T06:28:25.067Z,6.70
2018-05-14T06:30:53.339Z,6.47
2018-05-14T06:33:21.601Z,6.20
2018-05-14T06:35:50.034Z,7.80
2018-05-14T06:38:18.200Z,6.33
2018-05-14T06:40:46.535Z,6.33
2018-05-14T06:43:14.736Z,8.33
2018-05-14T06:45:43.128Z,6.70
2018-05-14T06:48:11.407Z,6.30
2018-05-14T06:50:39.676Z,6.30
2018-05-14T06:53:08.031Z,7.83
2018-05-14T06:55:37.015Z,6.70
2018-05-14T06:58:05.295Z,6.43
2018-05-14T07:00:33.576Z,6.07
2018-05-14T07:03:01.983Z,7.20
2018-05-14T07:05:30.183Z,6.70
2018-05-14T07:07:58.446Z,7.40
2018-05-14T07:10:27.508Z,7.20
2018-05-14T07:12:55.843Z,7.70
2018-05-14T07:15:24.071Z,6.80
2018-05-14T07:17:52.352Z,7.67
2018-05-14T07:20:21.464Z,6.03
2018-05-14T07:22:49.743Z,6.03
2018-05-14T07:25:18.043Z,6.80
2018-05-14T07:27:46.320Z,7.10
2018-05-14T07:30:15.462Z,6.00
2018-05-14T07:32:44.459Z,6.87
2018-05-14T07:35:12.745Z,8.00
2018-05-14T07:37:41.035Z,6.70
2018-05-14T07:40:09.399Z,7.10
2018-05-14T07:42:37.700Z,6.30
2018-05-14T07:45:05.984Z,6.37
2018-05-14T07:47:34.335Z,6.90
2018-05-14T07:50:02.611Z,5.80
2018-05-14T07:52:30.900Z,6.80
2018-05-14T07:54:59.187Z,6.23
2018-05-14T07:57:28.255Z,5.87
2018-05-14T07:59:56.640Z,6.83
2018-05-14T08:02:24.911Z,4.70
2018-05-14T08:04:53.188Z,6.43
2018-05-14T08:07:21.477Z,6.00
2018-05-14T08:09:49.755Z,6.07
2018-05-14T08:12:18.211Z,6.10
2018-05-14T08:14:46.599Z,6.80
2018-05-14T08:17:14.867Z,6.20
2018-05-14T08:19:43.251Z,5.27
2018-05-14T08:22:11.552Z,5.57
2018-05-14T08:24:40.613Z,5.80
2018-05-14T08:27:08.908Z,4.60
2018-05-14T08:29:37.215Z,4.70
2018-05-14T08:32:05.580Z,5.20
2018-05-14T08:34:34.636Z,5.27
2018-05-14T08:37:03.007Z,5.40
2018-05-14T08:39:31.237Z,6.40
2018-05-14T08:42:00.299Z,5.00
2018-05-14T08:44:28.579Z,5.80
2018-05-14T08:46:56.851Z,5.20
2018-05-14T08:49:25.128Z,5.73
2018-05-14T08:51:54.932Z,5.30
2018-05-14T08:54:23.350Z,5.60
2018-05-14T08:56:51.595Z,5.67
2018-05-14T08:59:19.863Z,5.43
2018-05-14T09:01:48.143Z,5.60
2018-05-14T09:04:16.420Z,6.10
2018-05-14T09:06:44.800Z,5.80
2018-05-14T09:09:13.051Z,6.13
2018-05-14T09:11:41.344Z,5.30
2018-05-14T09:14:09.624Z,5.87
2018-05-14T09:16:37.900Z,6.13
2018-05-14T09:19:06.180Z,5.10
2018-05-14T09:21:34.448Z,5.90
2018-05-14T09:24:02.707Z,5.40
2018-05-14T09:26:30.983Z,5.27
2018-05-14T09:28:59.282Z,5.07
2018-05-14T09:31:27.558Z,6.00
2018-05-14T09:33:55.840Z,6.00
2018-05-14T09:36:24.120Z,6.30
2018-05-14T09:38:52.415Z,5.53
2018-05-14T09:41:20.692Z,5.70
2018-05-14T09:43:48.983Z,5.27
2018-05-14T09:46:18.024Z,5.37
2018-05-14T09:48:46.416Z,6.53
2018-05-14T09:51:14.671Z,5.10
2018-05-14T09:53:42.928Z,6.00
2018-05-14T09:56:11.239Z,5.40
2018-05-14T09:58:39.479Z,4.97
2018-05-14T10:01:07.759Z,5.10
2018-05-14T10:03:36.072Z,5.80
2018-05-14T10:06:04.351Z,5.20
2018-05-14T10:08:32.619Z,5.40
2018-05-14T10:11:01.720Z,6.00
2018-05-14T10:13:30.019Z,6.50
2018-05-14T10:15:58.290Z,6.03
2018-05-14T10:18:27.368Z,5.40
2018-05-14T10:20:55.748Z,5.83
2018-05-14T10:23:24.030Z,6.40
2018-05-14T10:25:52.293Z,5.97
2018-05-14T10:28:20.591Z,6.07
2018-05-14T10:30:48.856Z,6.33
2018-05-14T10:33:17.127Z,6.20
2018-05-14T10:35:45.503Z,6.20
2018-05-14T10:38:13.796Z,5.80
2018-05-14T10:40:42.131Z,5.90
2018-05-14T10:43:10.435Z,6.40
2018-05-14T10:45:38.726Z,5.60
2018-05-14T10:48:07.001Z,5.30
2018-05-14T10:50:35.287Z,6.10
2018-05-14T10:53:04.337Z,5.80
2018-05-14T10:55:32.623Z,5.77
2018-05-14T10:58:00.911Z,4.90
2018-05-14T11:00:29.292Z,6.07
2018-05-14T11:02:57.588Z,6.07
2018-05-14T11:05:25.874Z,5.73
2018-05-14T11:07:54.223Z,5.90
2018-05-14T11:10:22.500Z,5.87
2018-05-14T11:12:50.879Z,5.10
2018-05-14T11:15:19.167Z,5.33
2018-05-14T11:17:48.241Z,5.70
2018-05-14T11:20:16.550Z,5.07
2018-05-14T11:22:44.903Z,5.87
2018-05-14T11:25:13.226Z,7.20
2018-05-14T11:27:42.426Z,7.00
2018-05-14T11:30:10.659Z,5.50
2018-05-14T11:32:39.037Z,6.80
2018-05-14T11:35:10.393Z,6.17
2018-05-14T11:37:38.755Z,8.30
2018-05-14T11:40:07.040Z,6.67
2018-05-14T11:42:35.323Z,6.57
2018-05-14T11:45:03.623Z,6.97
2018-05-14T11:47:32.671Z,6.27
2018-05-14T11:50:00.939Z,6.80
2018-05-14T11:52:29.289Z,6.87
2018-05-14T11:54:58.303Z,8.00
2018-05-14T11:57:26.573Z,8.27
2018-05-14T11:59:54.913Z,8.03
2018-05-14T12:02:23.220Z,7.40
2018-05-14T12:04:51.496Z,7.20
2018-05-14T12:07:19.800Z,7.87
2018-05-14T12:09:48.108Z,7.57
2018-05-14T12:12:16.558Z,6.50
2018-05-14T12:14:45.553Z,7.20
2018-05-14T12:17:13.894Z,5.67
2018-05-14T12:19:42.221Z,6.27
2018-05-14T12:22:10.618Z,6.10
2018-05-14T12:24:38.972Z,6.30
2018-05-14T12:27:07.264Z,5.10
2018-05-14T12:29:35.536Z,5.27
2018-05-14T12:32:03.932Z,5.63
2018-05-14T12:34:32.134Z,5.87
2018-05-14T12:37:00.408Z,5.00
2018-05-14T12:39:28.719Z,4.40
2018-05-14T12:41:56.992Z,5.10
2018-05-14T12:44:25.304Z,3.83
2018-05-14T12:46:53.668Z,5.00
2018-05-14T12:49:21.952Z,5.90
2018-05-14T12:51:51.031Z,5.43
2018-05-14T12:54:19.333Z,5.17
2018-05-14T12:56:49.107Z,5.10
2018-05-14T12:59:17.500Z,5.03
2018-05-14T13:01:45.884Z,6.90
2018-05-14T13:04:14.302Z,5.10
2018-05-14T13:06:43.335Z,5.70
2018-05-14T13:09:11.608Z,5.70
2018-05-14T13:11:39.907Z,5.23
2018-05-14T13:14:08.288Z,4.60
2018-05-14T13:19:11.893Z,4.97
2018-05-14T13:21:40.171Z,6.57
2018-05-14T13:24:08.447Z,5.23
2018-05-14T13:26:36.742Z,5.83
2018-05-14T13:29:05.035Z,5.80
2018-05-14T13:31:33.295Z,5.40
2018-05-14T13:34:01.587Z,6.60
2018-05-14T13:36:30.678Z,5.23
2018-05-14T13:38:59.037Z,6.10
2018-05-14T13:41:27.356Z,6.33
2018-05-14T13:43:56.399Z,5.77
2018-05-14T13:46:24.693Z,5.53
2018-05-14T13:48:52.985Z,5.93
2018-05-14T13:51:22.154Z,6.03
2018-05-14T13:53:50.435Z,5.20
2018-05-14T13:56:19.496Z,5.60
2018-05-14T13:58:47.775Z,5.20
2018-05-14T14:01:16.048Z,5.60
2018-05-14T14:03:44.339Z,5.43
2018-05-14T14:06:12.633Z,5.10
2018-05-14T14:08:40.907Z,5.93
2018-05-14T14:11:09.226Z,5.17
2018-05-14T14:13:37.507Z,5.53
2018-05-14T14:16:06.556Z,5.00
2018-05-14T14:18:34.855Z,4.80
2018-05-14T14:21:03.939Z,5.10
2018-05-14T14:23:32.330Z,4.87
2018-05-14T14:26:00.501Z,4.30
2018-05-14T14:28:28.780Z,5.40
2018-05-14T14:30:57.071Z,5.20
2018-05-14T14:33:25.412Z,4.50
2018-05-14T14:35:54.574Z,5.03
2018-05-14T14:38:22.887Z,4.93
2018-05-14T14:40:52.075Z,5.40
2018-05-14T14:43:20.371Z,5.37
2018-05-14T14:45:50.147Z,5.30
2018-05-14T14:48:18.448Z,5.50
2018-05-14T14:50:46.714Z,5.37
2018-05-14T14:53:14.991Z,4.20
2018-05-14T14:55:43.251Z,5.43
2018-05-14T14:58:11.547Z,6.00
2018-05-14T15:00:39.835Z,5.17
2018-05-14T15:03:08.232Z,4.93
2018-05-14T15:05:36.566Z,5.63
2018-05-14T15:08:04.884Z,5.77
2018-05-14T15:10:33.148Z,4.80
2018-05-14T15:13:01.538Z,4.50
2018-05-14T15:15:29.803Z,4.50
2018-05-14T15:17:58.092Z,5.50
2018-05-14T15:20:27.168Z,4.70
2018-05-14T15:22:55.568Z,4.63
2018-05-14T15:25:24.615Z,4.80
2018-05-14T15:27:52.923Z,4.90
2018-05-14T15:30:21.298Z,5.27
2018-05-14T15:32:49.671Z,4.73
2018-05-14T15:35:17.952Z,4.73
2018-05-14T15:37:46.355Z,4.73
2018-05-14T15:40:14.670Z,4.50
2018-05-14T15:42:42.940Z,5.00
2018-05-14T15:45:11.211Z,4.47
2018-05-14T15:47:39.512Z,5.13
2018-05-14T15:50:07.801Z,4.93
2018-05-14T15:52:36.304Z,7.17
2018-05-14T15:55:05.347Z,5.83
2018-05-14T15:57:33.619Z,4.53
2018-05-14T16:00:01.967Z,6.27
2018-05-14T16:02:30.280Z,5.40
2018-05-14T16:04:58.582Z,5.30
2018-05-14T16:07:26.856Z,5.17
2018-05-14T16:09:55.269Z,4.53
2018-05-14T16:12:23.526Z,5.40
2018-05-14T16:14:51.906Z,5.87
2018-05-14T16:17:20.199Z,5.60
2018-05-14T16:19:49.387Z,5.20
2018-05-14T16:22:19.167Z,4.60
2018-05-14T16:24:47.444Z,4.73
2018-05-14T16:27:15.747Z,4.43
2018-05-14T16:29:44.788Z,5.30
2018-05-14T16:32:13.111Z,5.40
2018-05-14T16:34:41.361Z,5.10
2018-05-14T16:37:09.648Z,5.37
2018-05-14T16:39:38.040Z,5.43
2018-05-14T16:42:06.423Z,4.93
2018-05-14T16:44:34.796Z,5.90
2018-05-14T16:47:03.179Z,4.40
2018-05-14T16:49:31.558Z,5.80
2018-05-14T16:51:59.831Z,5.50
2018-05-14T16:54:28.108Z,5.13
2018-05-14T16:56:56.367Z,4.67
2018-05-14T16:59:24.647Z,6.10
2018-05-14T17:01:52.920Z,4.40
2018-05-14T17:04:21.324Z,4.50
2018-05-14T17:06:49.635Z,3.87
2018-05-14T17:09:17.980Z,3.20
2018-05-14T17:11:46.235Z,4.30
2018-05-14T17:14:14.532Z,3.90
2018-05-14T17:16:42.904Z,4.47
2018-05-14T17:19:11.188Z,4.87
2018-05-14T17:21:40.231Z,4.60
2018-05-14T17:24:08.651Z,4.80
2018-05-14T17:26:37.027Z,4.77
2018-05-14T17:29:05.303Z,4.23
2018-05-14T17:31:34.399Z,4.07
2018-05-14T17:34:02.780Z,3.80
2018-05-14T17:36:32.678Z,4.10
2018-05-14T17:39:00.991Z,3.83
2018-05-14T17:41:30.072Z,4.20
2018-05-14T17:43:58.437Z,3.70
2018-05-14T17:46:28.229Z,3.30
2018-05-14T17:48:56.577Z,3.27
2018-05-14T17:51:25.636Z,3.57
2018-05-14T17:53:53.907Z,3.83
2018-05-14T17:56:22.201Z,3.67
2018-05-14T17:58:51.276Z,3.53
2018-05-14T18:01:19.551Z,4.30
2018-05-14T18:03:47.864Z,3.97
2018-05-14T18:06:16.169Z,3.17
2018-05-14T18:08:44.463Z,3.57
2018-05-14T18:11:12.845Z,3.27
2018-05-14T18:13:41.108Z,3.80
2018-05-14T18:16:09.412Z,3.50
2018-05-14T18:18:37.679Z,3.40
2018-05-14T18:21:11.579Z,3.20
2018-05-14T18:23:45.484Z,2.90
2018-05-14T18:26:17.559Z,3.63
2018-05-14T18:28:48.756Z,3.30
2018-05-14T18:31:22.947Z,3.33
2018-05-14T18:33:53.918Z,3.40
2018-05-14T18:36:22.224Z,3.67
2018-05-14T18:38:50.510Z,4.10
2018-05-14T18:41:18.787Z,3.20
2018-05-14T18:43:47.072Z,3.50
2018-05-14T18:46:15.342Z,3.80
2018-05-14T18:48:43.648Z,4.60
2018-05-14T18:51:11.963Z,3.20
2018-05-14T18:53:40.247Z,3.40
2018-05-14T18:56:08.536Z,3.80
2018-05-14T18:58:36.841Z,4.13
2018-05-14T19:01:05.310Z,5.60
2018-05-14T19:03:33.595Z,6.20
2018-05-14T19:06:01.966Z,3.70
2018-05-14T19:08:30.283Z,4.93
2018-05-14T19:11:04.174Z,4.23
2018-05-14T19:13:33.268Z,3.43
2018-05-14T19:16:08.132Z,3.90
2018-05-14T19:18:36.486Z,3.90
2018-05-14T19:21:04.742Z,3.60
2018-05-14T19:23:39.175Z,4.43
2018-05-14T19:26:07.460Z,4.13
2018-05-14T19:28:42.130Z,4.23
2018-05-14T19:31:10.393Z,4.27
2018-05-14T19:33:44.306Z,4.07
2018-05-14T19:36:13.977Z,4.17
2018-05-14T19:38:43.167Z,3.97
2018-05-14T19:41:12.539Z,4.47
2018-05-14T19:43:40.810Z,4.00
2018-05-14T19:46:09.112Z,4.10
2018-05-14T19:48:37.399Z,4.67
2018-05-14T19:51:07.393Z,4.53
2018-05-14T19:53:36.559Z,4.10
2018-05-14T19:56:04.839Z,5.30
2018-05-14T19:58:33.125Z,5.03
2018-05-14T20:01:01.502Z,5.17
2018-05-14T20:03:29.796Z,4.53
2018-05-14T20:05:58.042Z,4.50
2018-05-14T20:08:26.343Z,4.27
2018-05-14T20:10:54.600Z,4.70
2018-05-14T20:13:22.888Z,5.20
2018-05-14T20:15:51.163Z,4.80
2018-05-14T20:18:19.436Z,4.77
2018-05-14T20:20:47.740Z,5.30
2018-05-14T20:23:16.787Z,5.03
2018-05-14T20:25:45.079Z,4.93
2018-05-14T20:28:13.367Z,4.57
2018-05-14T20:30:41.673Z,4.17
2018-05-14T20:33:10.757Z,4.50
2018-05-14T20:35:40.759Z,4.80
2018-05-14T20:38:09.029Z,4.47
2018-05-14T20:40:37.287Z,4.50
2018-05-14T20:43:05.603Z,5.10
2018-05-14T20:45:33.967Z,4.93
2018-05-14T20:48:02.269Z,4.43
2018-05-14T20:50:31.312Z,4.90
2018-05-14T20:52:59.596Z,4.73
2018-05-14T20:55:27.872Z,4.90
2018-05-14T20:57:56.275Z,4.73
2018-05-14T21:00:24.535Z,4.27
2018-05-14T21:02:52.851Z,5.60
2018-05-14T21:05:21.207Z,5.27
2018-05-14T21:07:55.315Z,5.60
2018-05-14T21:10:23.593Z,5.07
2018-05-14T21:12:51.863Z,5.33
2018-05-14T21:15:20.363Z,5.37
2018-05-14T21:17:48.730Z,4.40
2018-05-14T21:20:17.040Z,4.63
2018-05-14T21:22:45.386Z,5.20
2018-05-14T21:25:13.663Z,5.33
2018-05-14T21:27:41.951Z,4.83
2018-05-14T21:30:11.005Z,4.83
2018-05-14T21:32:39.294Z,5.00
2018-05-14T21:35:07.570Z,4.57
2018-05-14T21:37:35.916Z,4.67
2018-05-14T21:40:04.916Z,5.00
2018-05-14T21:42:33.213Z,4.60
2018-05-14T21:45:01.654Z,4.70
2018-05-14T21:47:29.927Z,4.80
2018-05-14T21:49:58.215Z,4.60
2018-05-14T21:52:26.539Z,4.80
2018-05-14T21:54:54.807Z,5.17
2018-05-14T21:57:23.096Z,5.07
2018-05-14T21:59:51.410Z,3.97
2018-05-14T22:02:19.680Z,4.07
2018-05-14T22:04:47.960Z,4.53
2018-05-14T22:07:17.003Z,4.80
2018-05-14T22:09:45.276Z,4.30
2018-05-14T22:12:13.551Z,4.80
2018-05-14T22:14:41.835Z,4.80
2018-05-14T22:17:10.148Z,4.93
2018-05-14T22:19:38.411Z,4.10
2018-05-14T22:22:07.456Z,4.30
2018-05-14T22:24:35.747Z,4.53
2018-05-14T22:27:04.018Z,4.73
2018-05-14T22:29:32.292Z,5.10
2018-05-14T22:32:00.571Z,4.77
2018-05-14T22:34:28.875Z,4.90
2018-05-14T22:36:57.246Z,4.53
2018-05-14T22:39:25.511Z,4.90
2018-05-14T22:41:53.763Z,4.87
2018-05-14T22:44:22.075Z,5.27
2018-05-14T22:46:50.347Z,5.00
2018-05-14T22:49:18.837Z,4.93
2018-05-14T22:51:47.125Z,5.00
2018-05-14T22:54:27.288Z,5.13
2018-05-14T22:56:55.576Z,5.63
2018-05-14T22:59:23.902Z,4.93
2018-05-14T23:01:52.175Z,5.30
2018-05-14T23:04:20.448Z,5.23
2018-05-14T23:06:48.742Z,4.50
2018-05-14T23:09:17.029Z,5.70
2018-05-14T23:11:46.816Z,5.23
2018-05-14T23:14:15.111Z,4.77
2018-05-14T23:16:43.360Z,6.03
2018-05-14T23:19:11.639Z,4.77
2018-05-14T23:21:39.935Z,4.77
2018-05-14T23:24:08.219Z,4.63
2018-05-14T23:26:36.487Z,5.40
2018-05-14T23:29:04.795Z,5.00
2018-05-14T23:31:33.836Z,5.20
2018-05-14T23:34:02.148Z,5.10
2018-05-14T23:36:30.445Z,5.07
2018-05-14T23:38:59.491Z,5.40
2018-05-14T23:41:27.759Z,5.47
2018-05-14T23:43:56.055Z,5.70
2018-05-14T23:46:24.340Z,5.83
2018-05-14T23:48:52.623Z,5.00
2018-05-14T23:51:20.916Z,4.77
2018-05-14T23:53:49.957Z,4.67
2018-05-14T23:56:18.251Z,5.00
2018-05-14T23:58:46.531Z,5.73
